Aviator — V7NU9 — position and weather

sailwx.info

Track history (hours):
 
Tides and Currents Weather Stations Pressure Air Temp Water Temp Dewpoint Dewpoint Depression Visibility Wind Speed Wind Dir Waves Ship Positions

Aviator

Last reported at 2015-Mar-31 06:28 UTC. Time now 2015-Mar-31 06:46 UTC.
Position N 27°52' W 082°33'.

Length 140 m; draft 5.5 m.

Type: Ship. MMSI: 538003023.

Date/timePositionNaut miles runAvg speedWind from/ knotsBaromVisibWave heightAir tempDewpointWater temp
2015-Mar-31 06:28N 27°52' W 082°33'0 0.0
2015-Mar-31 05:31N 27°52' W 082°33'0 0.0
2015-Mar-31 04:31N 27°52' W 082°33'0 0.0
2015-Mar-31 03:28N 27°52' W 082°33'0 0.0
2015-Mar-31 02:28N 27°52' W 082°33'0 0.0
2015-Mar-31 01:28N 27°52' W 082°33'0 0.0
2015-Mar-31 00:22N 27°52' W 082°33'0 0.0
2015-Mar-30 23:31N 27°52' W 082°33'0 0.0
2015-Mar-30 22:28N 27°52' W 082°33'0 0.0
2015-Mar-30 21:28N 27°52' W 082°33'4 4.3
2015-Mar-30 20:33N 27°48' W 082°34'9 9.4
2015-Mar-30 19:33N 27°39' W 082°37'24 3.3
2015-Mar-30 12:28N 27°38' W 083°03'1 0.7
2015-Mar-30 10:29N 27°36' W 083°03'3510.6
2015-Mar-30 07:10N 27°02' W 083°12'  
2015-Mar-27 00:25N 31°46' W 080°36'1112.3
2015-Mar-26 23:33N 31°56' W 080°42'1212.3
2015-Mar-26 22:34N 32°02' W 080°54'9 9.1
2015-Mar-26 21:33N 32°05' W 081°04'5 5.2
2015-Mar-26 20:33N 32°09' W 081°09'0 0.0
2015-Mar-26 19:33N 32°09' W 081°09'0 0.0
2015-Mar-26 18:33N 32°09' W 081°09'0 0.0
2015-Mar-26 17:33N 32°09' W 081°09'0 0.0
2015-Mar-26 16:33N 32°09' W 081°09'0 0.0
2015-Mar-26 15:33N 32°09' W 081°09'0 0.0
2015-Mar-26 14:33N 32°09' W 081°09'0 0.0
2015-Mar-26 13:33N 32°09' W 081°09'0 0.0
2015-Mar-26 12:33N 32°09' W 081°09'0 0.0
2015-Mar-26 11:33N 32°09' W 081°09'0 0.0
2015-Mar-26 10:33N 32°09' W 081°09'0 0.0
2015-Mar-26 09:33N 32°09' W 081°09'0 0.0
2015-Mar-26 08:33N 32°09' W 081°09'0 0.0
2015-Mar-26 07:33N 32°09' W 081°09'0 0.0
2015-Mar-26 06:33N 32°09' W 081°09'0 0.0
2015-Mar-26 05:33N 32°09' W 081°09'0 0.0
2015-Mar-26 04:33N 32°09' W 081°09'0 0.0
2015-Mar-26 03:33N 32°09' W 081°09'0 0.0
2015-Mar-26 02:33N 32°09' W 081°09'0 0.0
2015-Mar-26 01:33N 32°09' W 081°09'0 0.0
2015-Mar-26 00:33N 32°09' W 081°09'0 0.0
2015-Mar-25 23:33N 32°09' W 081°09'0 0.0
2015-Mar-25 22:33N 32°09' W 081°09'0 0.0
2015-Mar-25 21:33N 32°09' W 081°09'0 0.0
2015-Mar-25 20:33N 32°09' W 081°09'0 0.0
2015-Mar-25 19:33N 32°09' W 081°09'0 0.0
2015-Mar-25 18:30N 32°09' W 081°09'0 0.0
2015-Mar-25 17:33N 32°09' W 081°09'0 0.0
2015-Mar-25 16:33N 32°09' W 081°09'0 0.0
2015-Mar-25 15:33N 32°09' W 081°09'0 0.0
2015-Mar-25 14:33N 32°09' W 081°09'0 0.0
2015-Mar-25 13:33N 32°09' W 081°09'0 0.0
2015-Mar-25 12:33N 32°09' W 081°09'0 0.0
2015-Mar-25 11:30N 32°09' W 081°09'0 0.0
2015-Mar-25 10:33N 32°09' W 081°09'0 0.0
2015-Mar-25 09:33N 32°09' W 081°09'0 0.0
2015-Mar-25 08:33N 32°09' W 081°09'0 0.0
2015-Mar-25 07:33N 32°09' W 081°09'0 0.0
2015-Mar-25 06:33N 32°09' W 081°09'0 0.0
2015-Mar-25 05:33N 32°09' W 081°09'0 0.0
2015-Mar-25 04:33N 32°09' W 081°09'0 0.0
2015-Mar-25 03:33N 32°09' W 081°09'0 0.0
2015-Mar-25 02:33N 32°09' W 081°09'0 0.0
2015-Mar-25 01:33N 32°09' W 081°09'0 0.0
2015-Mar-25 00:33N 32°09' W 081°09'0 0.0
2015-Mar-24 23:33N 32°09' W 081°09'0 0.0
2015-Mar-24 22:33N 32°09' W 081°09'0 0.0
2015-Mar-24 21:33N 32°09' W 081°09'0 0.0
2015-Mar-24 20:33N 32°09' W 081°09'0 0.0
2015-Mar-24 19:30N 32°09' W 081°09'0 0.0
2015-Mar-24 18:33N 32°09' W 081°09'0 0.0
2015-Mar-24 17:33N 32°09' W 081°09'0 0.0
2015-Mar-24 16:33N 32°09' W 081°09'0 0.0
2015-Mar-24 15:33N 32°09' W 081°09'0 0.0
2015-Mar-24 14:33N 32°09' W 081°09'0 0.0
2015-Mar-24 13:33N 32°09' W 081°09'0 0.0
2015-Mar-24 12:33N 32°09' W 081°09'0 0.0
2015-Mar-24 11:33N 32°09' W 081°09'0 0.0
2015-Mar-24 10:33N 32°09' W 081°09'0 0.0
2015-Mar-24 09:33N 32°09' W 081°09'0 0.0
2015-Mar-24 08:33N 32°09' W 081°09'0 0.0
2015-Mar-24 07:33N 32°09' W 081°09'0 0.0
2015-Mar-24 06:33N 32°09' W 081°09'0 0.0
2015-Mar-24 05:33N 32°09' W 081°09'0 0.0
2015-Mar-24 04:33N 32°09' W 081°09'0 0.0
2015-Mar-24 03:33N 32°09' W 081°09'0 0.0
2015-Mar-24 02:33N 32°09' W 081°09'0 0.0
2015-Mar-24 01:33N 32°09' W 081°09'0 0.0
2015-Mar-24 00:33N 32°09' W 081°09'0 0.0
2015-Mar-23 23:33N 32°09' W 081°09'0 0.0
2015-Mar-23 22:33N 32°09' W 081°09'0 0.0
2015-Mar-23 21:30N 32°09' W 081°09'0 0.0
2015-Mar-23 20:33N 32°09' W 081°09'0 0.0
2015-Mar-23 19:33N 32°09' W 081°09'0 0.0
2015-Mar-23 18:33N 32°09' W 081°09'0 0.0
2015-Mar-23 17:33N 32°09' W 081°09'0 0.0
2015-Mar-23 16:33N 32°09' W 081°09'0 0.0
2015-Mar-23 15:33N 32°09' W 081°09'0 0.0
2015-Mar-23 14:33N 32°09' W 081°09'0 0.0
2015-Mar-23 13:33N 32°09' W 081°09'5 4.8
2015-Mar-23 12:33N 32°05' W 081°05'1010.2
2015-Mar-23 11:34N 32°02' W 080°54'1211.6
2015-Mar-23 10:33N 31°55' W 080°42'2 1.8
2015-Mar-23 09:33N 31°56' W 080°40'  
Track history (hours):
 
Tides and Currents Weather Stations Pressure Air Temp Water Temp Dewpoint Dewpoint Depression Visibility Wind Speed Wind Dir Waves Ship Positions

Aviator

Last reported at 2015-Mar-31 06:28 UTC. Time now 2015-Mar-31 06:46 UTC.
Position N 27°52' W 082°33'.

Length 140 m; draft 5.5 m.

Type: Ship. MMSI: 538003023.

Date/timePositionNaut miles runAvg speedWind from/ knotsBaromVisibWave heightAir tempDewpointWater temp
2015-Mar-31 06:28N 27°52' W 082°33'0 0.0
2015-Mar-31 05:31N 27°52' W 082°33'0 0.0
2015-Mar-31 04:31N 27°52' W 082°33'0 0.0
2015-Mar-31 03:28N 27°52' W 082°33'0 0.0
2015-Mar-31 02:28N 27°52' W 082°33'0 0.0
2015-Mar-31 01:28N 27°52' W 082°33'0 0.0
2015-Mar-31 00:22N 27°52' W 082°33'0 0.0
2015-Mar-30 23:31N 27°52' W 082°33'0 0.0
2015-Mar-30 22:28N 27°52' W 082°33'0 0.0
2015-Mar-30 21:28N 27°52' W 082°33'4 4.3
2015-Mar-30 20:33N 27°48' W 082°34'9 9.4
2015-Mar-30 19:33N 27°39' W 082°37'24 3.3
2015-Mar-30 12:28N 27°38' W 083°03'1 0.7
2015-Mar-30 10:29N 27°36' W 083°03'3510.6
2015-Mar-30 07:10N 27°02' W 083°12'  
2015-Mar-27 00:25N 31°46' W 080°36'1112.3
2015-Mar-26 23:33N 31°56' W 080°42'1212.3
2015-Mar-26 22:34N 32°02' W 080°54'9 9.1
2015-Mar-26 21:33N 32°05' W 081°04'5 5.2
2015-Mar-26 20:33N 32°09' W 081°09'0 0.0
2015-Mar-26 19:33N 32°09' W 081°09'0 0.0
2015-Mar-26 18:33N 32°09' W 081°09'0 0.0
2015-Mar-26 17:33N 32°09' W 081°09'0 0.0
2015-Mar-26 16:33N 32°09' W 081°09'0 0.0
2015-Mar-26 15:33N 32°09' W 081°09'0 0.0
2015-Mar-26 14:33N 32°09' W 081°09'0 0.0
2015-Mar-26 13:33N 32°09' W 081°09'0 0.0
2015-Mar-26 12:33N 32°09' W 081°09'0 0.0
2015-Mar-26 11:33N 32°09' W 081°09'0 0.0
2015-Mar-26 10:33N 32°09' W 081°09'0 0.0
2015-Mar-26 09:33N 32°09' W 081°09'0 0.0
2015-Mar-26 08:33N 32°09' W 081°09'0 0.0
2015-Mar-26 07:33N 32°09' W 081°09'0 0.0
2015-Mar-26 06:33N 32°09' W 081°09'0 0.0
2015-Mar-26 05:33N 32°09' W 081°09'0 0.0
2015-Mar-26 04:33N 32°09' W 081°09'0 0.0
2015-Mar-26 03:33N 32°09' W 081°09'0 0.0
2015-Mar-26 02:33N 32°09' W 081°09'0 0.0
2015-Mar-26 01:33N 32°09' W 081°09'0 0.0
2015-Mar-26 00:33N 32°09' W 081°09'0 0.0
2015-Mar-25 23:33N 32°09' W 081°09'0 0.0
2015-Mar-25 22:33N 32°09' W 081°09'0 0.0
2015-Mar-25 21:33N 32°09' W 081°09'0 0.0
2015-Mar-25 20:33N 32°09' W 081°09'0 0.0
2015-Mar-25 19:33N 32°09' W 081°09'0 0.0
2015-Mar-25 18:30N 32°09' W 081°09'0 0.0
2015-Mar-25 17:33N 32°09' W 081°09'0 0.0
2015-Mar-25 16:33N 32°09' W 081°09'0 0.0
2015-Mar-25 15:33N 32°09' W 081°09'0 0.0
2015-Mar-25 14:33N 32°09' W 081°09'0 0.0
2015-Mar-25 13:33N 32°09' W 081°09'0 0.0
2015-Mar-25 12:33N 32°09' W 081°09'0 0.0
2015-Mar-25 11:30N 32°09' W 081°09'0 0.0
2015-Mar-25 10:33N 32°09' W 081°09'0 0.0
2015-Mar-25 09:33N 32°09' W 081°09'0 0.0
2015-Mar-25 08:33N 32°09' W 081°09'0 0.0
2015-Mar-25 07:33N 32°09' W 081°09'0 0.0
2015-Mar-25 06:33N 32°09' W 081°09'0 0.0
2015-Mar-25 05:33N 32°09' W 081°09'0 0.0
2015-Mar-25 04:33N 32°09' W 081°09'0 0.0
2015-Mar-25 03:33N 32°09' W 081°09'0 0.0
2015-Mar-25 02:33N 32°09' W 081°09'0 0.0
2015-Mar-25 01:33N 32°09' W 081°09'0 0.0
2015-Mar-25 00:33N 32°09' W 081°09'0 0.0
2015-Mar-24 23:33N 32°09' W 081°09'0 0.0
2015-Mar-24 22:33N 32°09' W 081°09'0 0.0
2015-Mar-24 21:33N 32°09' W 081°09'0 0.0
2015-Mar-24 20:33N 32°09' W 081°09'0 0.0
2015-Mar-24 19:30N 32°09' W 081°09'0 0.0
2015-Mar-24 18:33N 32°09' W 081°09'0 0.0
2015-Mar-24 17:33N 32°09' W 081°09'0 0.0
2015-Mar-24 16:33N 32°09' W 081°09'0 0.0
2015-Mar-24 15:33N 32°09' W 081°09'0 0.0
2015-Mar-24 14:33N 32°09' W 081°09'0 0.0
2015-Mar-24 13:33N 32°09' W 081°09'0 0.0
2015-Mar-24 12:33N 32°09' W 081°09'0 0.0
2015-Mar-24 11:33N 32°09' W 081°09'0 0.0
2015-Mar-24 10:33N 32°09' W 081°09'0 0.0
2015-Mar-24 09:33N 32°09' W 081°09'0 0.0
2015-Mar-24 08:33N 32°09' W 081°09'0 0.0
2015-Mar-24 07:33N 32°09' W 081°09'0 0.0
2015-Mar-24 06:33N 32°09' W 081°09'0 0.0
2015-Mar-24 05:33N 32°09' W 081°09'0 0.0
2015-Mar-24 04:33N 32°09' W 081°09'0 0.0
2015-Mar-24 03:33N 32°09' W 081°09'0 0.0
2015-Mar-24 02:33N 32°09' W 081°09'0 0.0
2015-Mar-24 01:33N 32°09' W 081°09'0 0.0
2015-Mar-24 00:33N 32°09' W 081°09'0 0.0
2015-Mar-23 23:33N 32°09' W 081°09'0 0.0
2015-Mar-23 22:33N 32°09' W 081°09'0 0.0
2015-Mar-23 21:30N 32°09' W 081°09'0 0.0
2015-Mar-23 20:33N 32°09' W 081°09'0 0.0
2015-Mar-23 19:33N 32°09' W 081°09'0 0.0
2015-Mar-23 18:33N 32°09' W 081°09'0 0.0
2015-Mar-23 17:33N 32°09' W 081°09'0 0.0
2015-Mar-23 16:33N 32°09' W 081°09'0 0.0
2015-Mar-23 15:33N 32°09' W 081°09'0 0.0
2015-Mar-23 14:33N 32°09' W 081°09'0 0.0
2015-Mar-23 13:33N 32°09' W 081°09'5 4.8
2015-Mar-23 12:33N 32°05' W 081°05'1010.2
2015-Mar-23 11:34N 32°02' W 080°54'1211.6
2015-Mar-23 10:33N 31°55' W 080°42'2 1.8
2015-Mar-23 09:33N 31°56' W 080°40'  

Dump ship's entire track history